Nearby METAR Reports

 

KCMA - Camarillo, California, USA
Distance from station: WSW 4mi, 7km
Updated: Tue, 17-Jul-2018 3:55am PDT
Overcast
Overcast
 Wind from W
Wind: W 3 mph , 6 km/h
Temperature: 66°F , 19°C
Dew Point: 61°F , 16°C
Humidity: 83%
Barometer: 29.95 inHg , 1014.2 hPa
Clouds: Overcast
Visibility: 9 miles , 14 km
Cloud details: Overcast 800 ft
2018/07/17 10:55 KCMA 171055Z AUTO 27003KT 9SM OVC008 19/16 A2995 RMK AO2 SLP149 T01940156 $
KNTD - Point Mugu Nas, California, USA
Distance from station: SSW 9mi, 15km
Updated: Tue, 17-Jul-2018 3:58am PDT
Overcast
Overcast
 Wind from WNW
Wind: WNW 3 mph , 6 km/h
Temperature: 66°F , 19°C
Dew Point: 61°F , 16°C
Humidity: 83%
Barometer: 29.95 inHg , 1014.2 hPa
Clouds: Overcast
Visibility: 9 miles , 14 km
Cloud details: Overcast 900 ft
2018/07/17 10:58 KNTD 171058Z AUTO 30003KT 9SM OVC009 19/16 A2995 RMK AO2 SLP144 T01940161 CHINO N VISNO N $
 
KOXR - Oxnard, California, USA
Distance from station: WSW 10mi, 16km
Updated: Tue, 17-Jul-2018 3:51am PDT
Overcast
Overcast
 Wind from W
Wind: W 7 mph , 11 km/h
Temperature: 64°F , 18°C
Dew Point: 61°F , 16°C
Humidity: 88%
Barometer: 29.95 inHg , 1014.2 hPa
Clouds: Overcast
Visibility: 10 miles , 16 km
Cloud details: Overcast 800 ft
2018/07/17 10:51 KOXR 171051Z AUTO 27006KT 10SM OVC008 18/16 A2995 RMK AO2 SLP141 T01830161
KVNY - Van Nuys, California, USA
Distance from station: E 31mi, 50km
Updated: Tue, 17-Jul-2018 3:51am PDT
Clear
Clear
 Wind from ESE
Wind: ESE 6 mph , 9 km/h
Temperature: 68°F , 20°C
Dew Point: 63°F , 17°C
Humidity: 83%
Barometer: 29.95 inHg , 1014.2 hPa
Clouds: Clear
Visibility: 10 miles , 16 km
2018/07/17 10:51 KVNY 171051Z AUTO 12005KT 10SM CLR 20/17 A2995 RMK AO2 SLP133 T02000167
 
KWHP - La / Whiteman, California, USA
Distance from station: E 35mi, 56km
Updated: Mon, 16-Jul-2018 7:55pm PDT
NOT Current
Clear
Clear
 Wind from calm
Wind: Calm
Temperature: 81°F , 27°C
Heat Index: 81°F , 27°C
Dew Point: 59°F , 15°C
Humidity: 48%
Barometer: 29.96 inHg , 1014.6 hPa
Clouds: Clear
Visibility: 10 miles , 16 km
2018/07/17 02:55 KWHP 170255Z 00000KT 10SM SKC 27/15 A2996
KSMO - Santa Monica, California, USA
Distance from station: ESE 36mi, 58km
Updated: Tue, 17-Jul-2018 3:51am PDT
Overcast
Overcast
 Wind from calm
Wind: Calm
Temperature: 66°F , 19°C
Dew Point: 63°F , 17°C
Humidity: 88%
Barometer: 29.95 inHg , 1014.2 hPa
Clouds: Overcast
Visibility: 10 miles , 16 km
Cloud details: Overcast 1000 ft
2018/07/17 10:51 KSMO 171051Z AUTO 00000KT 10SM OVC010 19/17 A2995 RMK AO2 SLP141 T01940172 $
 
KBUR - Burbank, California, USA
Distance from station: E 38mi, 61km
Updated: Tue, 17-Jul-2018 3:53am PDT
Clear
Clear
 Wind from SSE
Wind: SSE 6 mph , 9 km/h
Temperature: 66°F , 19°C
Dew Point: 64°F , 18°C
Humidity: 94%
Barometer: 29.95 inHg , 1014.2 hPa
Clouds: Clear
Visibility: 10 miles , 16 km
2018/07/17 10:53 KBUR 171053Z 15005KT 10SM CLR 19/18 A2995 RMK AO2 SLP130 T01940178 $
KSDB - Sandberg, California, USA
Distance from station: NNE 40mi, 64km
Updated: Tue, 17-Jul-2018 3:53am PDT
Clear
Clear
 Wind from NNW
Wind: NNW 20 mph , 31 km/h, Gust: 32 mph , 52 km/h
Temperature: 73°F , 23°C
Dew Point: 50°F , 10°C
Humidity: 44%
Barometer: 30.15 inHg , 1021 hPa
Clouds: Clear
Visibility: 10 miles , 16 km
2018/07/17 10:53 KSDB 171053Z AUTO 34017G28KT 10SM CLR 23/10 A3015 RMK AO2 PK WND 33029/1027 SLP141 T02330100 $
 
KLAX - Los Angeles, California, USA
Distance from station: ESE 42mi, 68km
Updated: Tue, 17-Jul-2018 3:53am PDT
Overcast
Overcast
 Wind from WSW
Wind: WSW 5 mph , 7 km/h
Temperature: 70°F , 21°C
Dew Point: 64°F , 18°C
Humidity: 83%
Barometer: 29.95 inHg , 1014.2 hPa
Clouds: Overcast
Visibility: 10 miles , 16 km
Cloud details: Overcast 1100 ft
2018/07/17 10:53 KLAX 171053Z 24004KT 10SM OVC011 21/18 A2995 RMK AO2 SLP140 T02060183
KCQT - Los Angeles, California, USA
Distance from station: ESE 45mi, 73km
Updated: Tue, 17-Jul-2018 4:47am PDT
Overcast
Overcast
 Wind from calm
Wind: Calm
Temperature: 70°F , 21°C
Dew Point: 63°F , 17°C
Humidity: 78%
Barometer: 29.94 inHg , 1013.9 hPa
Clouds: Overcast
Visibility: 8 miles , 13 km
Cloud details: Overcast 1300 ft
2018/07/17 11:47 KCQT 171147Z AUTO 00000KT 8SM OVC013 21/17 A2994 RMK AO2 SLP136 T02110172 10211 20206 56006 $
 
KHHR - Hawthorne, California, USA
Distance from station: ESE 45mi, 73km
Updated: Tue, 17-Jul-2018 3:53am PDT
Overcast
Overcast
 Wind from calm
Wind: Calm
Temperature: 70°F , 21°C
Dew Point: 64°F , 18°C
Humidity: 83%
Barometer: 29.95 inHg , 1014.2 hPa
Clouds: Overcast
Visibility: 8 miles , 13 km
Cloud details: Overcast 1200 ft
2018/07/17 10:53 KHHR 171053Z AUTO 00000KT 8SM OVC012 21/18 A2995 RMK AO2 SLP142 T02110178
KSBA - Santa Barbara, California, USA
Distance from station: WNW 49mi, 79km
Updated: Tue, 17-Jul-2018 3:53am PDT
Mostly cloudy
Mostly cloudy
 Wind from E
Wind: E 5 mph , 7 km/h
Temperature: 64°F , 18°C
Dew Point: 61°F , 16°C
Humidity: 88%
Barometer: 29.95 inHg , 1014.2 hPa
Clouds: Mostly cloudy
Visibility: 10 miles , 16 km
Cloud details: Mostly cloudy 800 ft
2018/07/17 10:53 KSBA 171053Z AUTO 08004KT 10SM BKN008 18/16 A2995 RMK AO2 SLP141 T01780156 $